Terminal Aerodrome Forecast
Issued by NWS

Home | Current Version | Previous Version | Text Only | Print | Product List | Glossary On
Versions: 1 2 3 4 5 6 7 8 9 10 11 12 13 14 15 16 17 18 19 20
000
FTUS45 KTFX 011100
TAFGTF
TAF
KGTF 011131Z 0112/0212 VRB03KT P6SM VCFG SCT150
      TEMPO 0112/0114 1/4SM FZFG BKN003
     FM011500 15007KT P6SM SCT120 BKN150
     FM012200 20014KT P6SM BKN080
     FM020300 22013KT P6SM SCT040 BKN090=

USA.gov is the U.S. government's official web portal to all federal, state and local government web resources and services.